sensor_id;sensor_type;location;lat;lon;timestamp;temperature;humidity
12025;DHT22;6073;53.230;10.444;2022-11-20T00:01:47;0.90;99.90
12025;DHT22;6073;53.230;10.444;2022-11-20T00:04:22;0.90;99.90
12025;DHT22;6073;53.230;10.444;2022-11-20T00:06:47;0.90;99.90
12025;DHT22;6073;53.230;10.444;2022-11-20T00:09:13;0.90;99.90
12025;DHT22;6073;53.230;10.444;2022-11-20T00:11:39;0.90;99.90
12025;DHT22;6073;53.230;10.444;2022-11-20T00:14:12;0.90;99.90
12025;DHT22;6073;53.230;10.444;2022-11-20T00:16:41;0.90;99.90
12025;DHT22;6073;53.230;10.444;2022-11-20T00:19:06;0.90;99.90
12025;DHT22;6073;53.230;10.444;2022-11-20T00:21:32;0.90;99.90
12025;DHT22;6073;53.230;10.444;2022-11-20T00:24:00;0.90;99.90
12025;DHT22;6073;53.230;10.444;2022-11-20T00:26:46;0.90;99.90
12025;DHT22;6073;53.230;10.444;2022-11-20T00:29:11;0.90;99.90
12025;DHT22;6073;53.230;10.444;2022-11-20T00:31:37;0.80;99.90
12025;DHT22;6073;53.230;10.444;2022-11-20T00:34:03;0.80;99.90
12025;DHT22;6073;53.230;10.444;2022-11-20T00:36:32;0.80;99.90
12025;DHT22;6073;53.230;10.444;2022-11-20T00:39:01;0.80;99.90
12025;DHT22;6073;53.230;10.444;2022-11-20T00:41:31;0.80;99.90
12025;DHT22;6073;53.230;10.444;2022-11-20T00:43:58;0.80;99.90
12025;DHT22;6073;53.230;10.444;2022-11-20T00:46:26;0.80;99.90
12025;DHT22;6073;53.230;10.444;2022-11-20T00:48:55;0.80;99.90
12025;DHT22;6073;53.230;10.444;2022-11-20T00:51:25;0.80;99.90
12025;DHT22;6073;53.230;10.444;2022-11-20T00:53:55;0.80;99.90
12025;DHT22;6073;53.230;10.444;2022-11-20T00:56:20;0.80;99.90
12025;DHT22;6073;53.230;10.444;2022-11-20T00:58:48;0.80;99.90
12025;DHT22;6073;53.230;10.444;2022-11-20T01:01:22;0.80;99.90
12025;DHT22;6073;53.230;10.444;2022-11-20T01:04:00;0.70;99.90
12025;DHT22;6073;53.230;10.444;2022-11-20T01:06:32;0.80;99.90
12025;DHT22;6073;53.230;10.444;2022-11-20T01:09:02;0.80;99.90
12025;DHT22;6073;53.230;10.444;2022-11-20T01:11:40;0.80;99.90
12025;DHT22;6073;53.230;10.444;2022-11-20T01:14:12;0.70;99.90
12025;DHT22;6073;53.230;10.444;2022-11-20T01:16:43;0.70;99.90
12025;DHT22;6073;53.230;10.444;2022-11-20T01:19:14;0.70;99.90
12025;DHT22;6073;53.230;10.444;2022-11-20T01:21:41;0.70;99.90
12025;DHT22;6073;53.230;10.444;2022-11-20T01:24:15;0.70;99.90
12025;DHT22;6073;53.230;10.444;2022-11-20T01:26:42;0.70;99.90
12025;DHT22;6073;53.230;10.444;2022-11-20T01:29:23;0.70;99.90
12025;DHT22;6073;53.230;10.444;2022-11-20T01:31:48;0.70;99.90
12025;DHT22;6073;53.230;10.444;2022-11-20T01:34:16;0.70;99.90
12025;DHT22;6073;53.230;10.444;2022-11-20T01:36:42;0.70;99.90
12025;DHT22;6073;53.230;10.444;2022-11-20T01:39:14;0.70;99.90
12025;DHT22;6073;53.230;10.444;2022-11-20T01:41:41;0.70;99.90
12025;DHT22;6073;53.230;10.444;2022-11-20T01:45:00;0.70;99.90
12025;DHT22;6073;53.230;10.444;2022-11-20T01:47:36;0.70;99.90
12025;DHT22;6073;53.230;10.444;2022-11-20T01:50:09;0.70;99.90
12025;DHT22;6073;53.230;10.444;2022-11-20T01:52:41;0.70;99.90
12025;DHT22;6073;53.230;10.444;2022-11-20T01:55:13;0.70;99.90
12025;DHT22;6073;53.230;10.444;2022-11-20T01:57:40;0.70;99.90
12025;DHT22;6073;53.230;10.444;2022-11-20T02:00:11;0.70;99.90
12025;DHT22;6073;53.230;10.444;2022-11-20T02:02:38;0.60;99.90
12025;DHT22;6073;53.230;10.444;2022-11-20T02:07:42;0.60;99.90
12025;DHT22;6073;53.230;10.444;2022-11-20T02:10:08;0.60;99.90
12025;DHT22;6073;53.230;10.444;2022-11-20T02:12:34;0.60;99.90
12025;DHT22;6073;53.230;10.444;2022-11-20T02:15:18;0.50;99.90
12025;DHT22;6073;53.230;10.444;2022-11-20T02:17:43;0.50;99.90
12025;DHT22;6073;53.230;10.444;2022-11-20T02:20:09;0.40;99.90
12025;DHT22;6073;53.230;10.444;2022-11-20T02:22:46;0.40;99.90
12025;DHT22;6073;53.230;10.444;2022-11-20T02:25:15;0.30;99.90
12025;DHT22;6073;53.230;10.444;2022-11-20T02:27:41;0.20;99.90
12025;DHT22;6073;53.230;10.444;2022-11-20T02:30:07;0.00;99.90
12025;DHT22;6073;53.230;10.444;2022-11-20T02:32:35;-0.10;99.90
12025;DHT22;6073;53.230;10.444;2022-11-20T02:37:45;-0.20;99.90
12025;DHT22;6073;53.230;10.444;2022-11-20T02:40:11;-0.30;99.90
12025;DHT22;6073;53.230;10.444;2022-11-20T02:42:37;-0.40;99.90
12025;DHT22;6073;53.230;10.444;2022-11-20T02:45:04;-0.50;99.90
12025;DHT22;6073;53.230;10.444;2022-11-20T02:47:30;-0.60;99.90
12025;DHT22;6073;53.230;10.444;2022-11-20T02:49:56;-0.60;99.90
12025;DHT22;6073;53.230;10.444;2022-11-20T02:52:21;-0.70;99.90
12025;DHT22;6073;53.230;10.444;2022-11-20T02:54:47;-0.70;99.90
12025;DHT22;6073;53.230;10.444;2022-11-20T02:57:13;-0.80;99.90
12025;DHT22;6073;53.230;10.444;2022-11-20T02:59:38;-0.80;99.90
12025;DHT22;6073;53.230;10.444;2022-11-20T03:02:04;-0.80;99.90
12025;DHT22;6073;53.230;10.444;2022-11-20T03:04:30;-0.80;99.90
12025;DHT22;6073;53.230;10.444;2022-11-20T03:06:56;-0.80;99.90
12025;DHT22;6073;53.230;10.444;2022-11-20T03:09:21;-0.80;99.90
12025;DHT22;6073;53.230;10.444;2022-11-20T03:11:47;-0.80;99.90
12025;DHT22;6073;53.230;10.444;2022-11-20T03:14:13;-0.70;99.90
12025;DHT22;6073;53.230;10.444;2022-11-20T03:16:38;-0.70;99.90
12025;DHT22;6073;53.230;10.444;2022-11-20T03:19:04;-0.60;99.90
12025;DHT22;6073;53.230;10.444;2022-11-20T03:21:29;-0.60;99.90
12025;DHT22;6073;53.230;10.444;2022-11-20T03:23:55;-0.50;99.90
12025;DHT22;6073;53.230;10.444;2022-11-20T03:26:23;-0.40;99.90
12025;DHT22;6073;53.230;10.444;2022-11-20T03:28:51;-0.40;99.90
12025;DHT22;6073;53.230;10.444;2022-11-20T03:31:20;-0.30;99.90
12025;DHT22;6073;53.230;10.444;2022-11-20T03:33:46;-0.30;99.90
12025;DHT22;6073;53.230;10.444;2022-11-20T03:36:14;-0.20;99.90
12025;DHT22;6073;53.230;10.444;2022-11-20T03:38:40;-0.20;99.90
12025;DHT22;6073;53.230;10.444;2022-11-20T03:41:08;-0.20;99.90
12025;DHT22;6073;53.230;10.444;2022-11-20T03:43:35;-0.10;99.90
12025;DHT22;6073;53.230;10.444;2022-11-20T03:46:01;-0.10;99.90
12025;DHT22;6073;53.230;10.444;2022-11-20T03:48:27;-0.10;99.90
12025;DHT22;6073;53.230;10.444;2022-11-20T03:51:05;0.00;99.90
12025;DHT22;6073;53.230;10.444;2022-11-20T03:53:31;0.00;99.90
12025;DHT22;6073;53.230;10.444;2022-11-20T03:55:57;0.00;99.90
12025;DHT22;6073;53.230;10.444;2022-11-20T03:58:22;0.00;99.90
12025;DHT22;6073;53.230;10.444;2022-11-20T04:00:48;0.00;99.90
12025;DHT22;6073;53.230;10.444;2022-11-20T04:03:13;0.00;99.90
12025;DHT22;6073;53.230;10.444;2022-11-20T04:05:39;0.00;99.90
12025;DHT22;6073;53.230;10.444;2022-11-20T04:08:05;0.00;99.90
12025;DHT22;6073;53.230;10.444;2022-11-20T04:10:30;0.00;99.90
12025;DHT22;6073;53.230;10.444;2022-11-20T04:12:56;0.00;99.90
12025;DHT22;6073;53.230;10.444;2022-11-20T04:15:21;0.00;99.90
12025;DHT22;6073;53.230;10.444;2022-11-20T04:17:47;0.00;99.90
12025;DHT22;6073;53.230;10.444;2022-11-20T04:20:12;0.00;99.90
12025;DHT22;6073;53.230;10.444;2022-11-20T04:22:38;0.00;99.90
12025;DHT22;6073;53.230;10.444;2022-11-20T04:25:04;0.10;99.90
12025;DHT22;6073;53.230;10.444;2022-11-20T04:27:30;0.10;99.90
12025;DHT22;6073;53.230;10.444;2022-11-20T04:29:56;0.10;99.90
12025;DHT22;6073;53.230;10.444;2022-11-20T04:32:21;0.10;99.90
12025;DHT22;6073;53.230;10.444;2022-11-20T04:34:47;0.20;99.90
12025;DHT22;6073;53.230;10.444;2022-11-20T04:37:12;0.20;99.90
12025;DHT22;6073;53.230;10.444;2022-11-20T04:39:38;0.20;99.90
12025;DHT22;6073;53.230;10.444;2022-11-20T04:42:03;0.20;99.90
12025;DHT22;6073;53.230;10.444;2022-11-20T04:44:47;0.20;99.90
12025;DHT22;6073;53.230;10.444;2022-11-20T04:47:13;0.20;99.90
12025;DHT22;6073;53.230;10.444;2022-11-20T04:49:38;0.20;99.90
12025;DHT22;6073;53.230;10.444;2022-11-20T04:52:04;0.30;99.90
12025;DHT22;6073;53.230;10.444;2022-11-20T04:54:29;0.30;99.90
12025;DHT22;6073;53.230;10.444;2022-11-20T04:56:55;0.20;99.90
12025;DHT22;6073;53.230;10.444;2022-11-20T04:59:21;0.30;99.90
12025;DHT22;6073;53.230;10.444;2022-11-20T05:01:46;0.20;99.90
12025;DHT22;6073;53.230;10.444;2022-11-20T05:04:12;0.30;99.90
12025;DHT22;6073;53.230;10.444;2022-11-20T05:06:37;0.30;99.90
12025;DHT22;6073;53.230;10.444;2022-11-20T05:09:03;0.30;99.90
12025;DHT22;6073;53.230;10.444;2022-11-20T05:11:29;0.30;99.90
12025;DHT22;6073;53.230;10.444;2022-11-20T05:13:54;0.30;99.90
12025;DHT22;6073;53.230;10.444;2022-11-20T05:16:22;0.30;99.90
12025;DHT22;6073;53.230;10.444;2022-11-20T05:18:49;0.30;99.90
12025;DHT22;6073;53.230;10.444;2022-11-20T05:21:15;0.20;99.90
12025;DHT22;6073;53.230;10.444;2022-11-20T05:23:41;0.20;99.90
12025;DHT22;6073;53.230;10.444;2022-11-20T05:26:11;0.20;99.90
12025;DHT22;6073;53.230;10.444;2022-11-20T05:28:37;0.20;99.90
12025;DHT22;6073;53.230;10.444;2022-11-20T05:31:11;0.20;99.90
12025;DHT22;6073;53.230;10.444;2022-11-20T05:33:40;0.30;99.90
12025;DHT22;6073;53.230;10.444;2022-11-20T05:36:06;0.20;99.90
12025;DHT22;6073;53.230;10.444;2022-11-20T05:38:32;0.30;99.90
12025;DHT22;6073;53.230;10.444;2022-11-20T05:41:05;0.20;99.90
12025;DHT22;6073;53.230;10.444;2022-11-20T05:43:33;0.30;99.90
12025;DHT22;6073;53.230;10.444;2022-11-20T05:45:59;0.30;99.90
12025;DHT22;6073;53.230;10.444;2022-11-20T05:48:24;0.30;99.90
12025;DHT22;6073;53.230;10.444;2022-11-20T05:50:50;0.30;99.90
12025;DHT22;6073;53.230;10.444;2022-11-20T05:53:16;0.40;99.90
12025;DHT22;6073;53.230;10.444;2022-11-20T05:55:41;0.40;99.90
12025;DHT22;6073;53.230;10.444;2022-11-20T05:58:07;0.40;99.90
12025;DHT22;6073;53.230;10.444;2022-11-20T06:00:32;0.40;99.90
12025;DHT22;6073;53.230;10.444;2022-11-20T06:02:58;0.40;99.90
12025;DHT22;6073;53.230;10.444;2022-11-20T06:05:23;0.40;99.90
12025;DHT22;6073;53.230;10.444;2022-11-20T06:07:49;0.40;99.90
12025;DHT22;6073;53.230;10.444;2022-11-20T06:10:14;0.40;99.90
12025;DHT22;6073;53.230;10.444;2022-11-20T06:12:40;0.40;99.90
12025;DHT22;6073;53.230;10.444;2022-11-20T06:15:06;0.40;99.90
12025;DHT22;6073;53.230;10.444;2022-11-20T06:17:31;0.30;99.90
12025;DHT22;6073;53.230;10.444;2022-11-20T06:19:57;0.30;99.90
12025;DHT22;6073;53.230;10.444;2022-11-20T06:22:22;0.30;99.90
12025;DHT22;6073;53.230;10.444;2022-11-20T06:24:48;0.30;99.90
12025;DHT22;6073;53.230;10.444;2022-11-20T06:27:14;0.30;99.90
12025;DHT22;6073;53.230;10.444;2022-11-20T06:29:39;0.30;99.90
12025;DHT22;6073;53.230;10.444;2022-11-20T06:32:05;0.30;99.90
12025;DHT22;6073;53.230;10.444;2022-11-20T06:34:30;0.30;99.90
12025;DHT22;6073;53.230;10.444;2022-11-20T06:36:56;0.20;99.90
12025;DHT22;6073;53.230;10.444;2022-11-20T06:39:21;0.20;99.90
12025;DHT22;6073;53.230;10.444;2022-11-20T06:41:47;0.20;99.90
12025;DHT22;6073;53.230;10.444;2022-11-20T06:44:12;0.20;99.90
12025;DHT22;6073;53.230;10.444;2022-11-20T06:46:38;0.20;99.90
12025;DHT22;6073;53.230;10.444;2022-11-20T06:49:03;0.20;99.90
12025;DHT22;6073;53.230;10.444;2022-11-20T06:51:29;0.20;99.90
12025;DHT22;6073;53.230;10.444;2022-11-20T06:53:55;0.20;99.90
12025;DHT22;6073;53.230;10.444;2022-11-20T06:56:20;0.20;99.90
12025;DHT22;6073;53.230;10.444;2022-11-20T06:58:46;0.20;99.90
12025;DHT22;6073;53.230;10.444;2022-11-20T07:01:13;0.20;99.90
12025;DHT22;6073;53.230;10.444;2022-11-20T07:03:40;0.20;99.90
12025;DHT22;6073;53.230;10.444;2022-11-20T07:06:06;0.20;99.90
12025;DHT22;6073;53.230;10.444;2022-11-20T07:08:32;0.20;99.90
12025;DHT22;6073;53.230;10.444;2022-11-20T07:10:59;0.20;99.90
12025;DHT22;6073;53.230;10.444;2022-11-20T07:13:25;0.20;99.90
12025;DHT22;6073;53.230;10.444;2022-11-20T07:15:51;0.20;99.90
12025;DHT22;6073;53.230;10.444;2022-11-20T07:18:17;0.20;99.90
12025;DHT22;6073;53.230;10.444;2022-11-20T07:20:42;0.20;99.90
12025;DHT22;6073;53.230;10.444;2022-11-20T07:23:08;0.30;99.90
12025;DHT22;6073;53.230;10.444;2022-11-20T07:25:33;0.30;99.90
12025;DHT22;6073;53.230;10.444;2022-11-20T07:28:00;0.30;99.90
12025;DHT22;6073;53.230;10.444;2022-11-20T07:30:26;0.40;99.90
12025;DHT22;6073;53.230;10.444;2022-11-20T07:32:52;0.40;99.90
12025;DHT22;6073;53.230;10.444;2022-11-20T07:35:19;0.40;99.90
12025;DHT22;6073;53.230;10.444;2022-11-20T07:40:53;0.40;99.90
12025;DHT22;6073;53.230;10.444;2022-11-20T07:43:19;0.40;99.90
12025;DHT22;6073;53.230;10.444;2022-11-20T07:45:46;0.50;99.90
12025;DHT22;6073;53.230;10.444;2022-11-20T07:48:12;0.50;99.90
12025;DHT22;6073;53.230;10.444;2022-11-20T07:50:38;0.50;99.90
12025;DHT22;6073;53.230;10.444;2022-11-20T07:53:04;0.60;99.90
12025;DHT22;6073;53.230;10.444;2022-11-20T07:55:30;0.60;99.90
12025;DHT22;6073;53.230;10.444;2022-11-20T07:57:56;0.60;99.90
12025;DHT22;6073;53.230;10.444;2022-11-20T08:00:23;0.70;99.90
12025;DHT22;6073;53.230;10.444;2022-11-20T08:02:48;0.70;99.90
12025;DHT22;6073;53.230;10.444;2022-11-20T08:05:14;0.70;99.90
12025;DHT22;6073;53.230;10.444;2022-11-20T08:07:42;0.90;99.90
12025;DHT22;6073;53.230;10.444;2022-11-20T08:10:09;1.00;99.90
12025;DHT22;6073;53.230;10.444;2022-11-20T08:12:42;1.00;99.90
12025;DHT22;6073;53.230;10.444;2022-11-20T08:15:28;1.10;99.90
12025;DHT22;6073;53.230;10.444;2022-11-20T08:18:11;1.20;99.90
12025;DHT22;6073;53.230;10.444;2022-11-20T08:20:38;1.40;99.90
12025;DHT22;6073;53.230;10.444;2022-11-20T08:23:08;1.50;99.90
12025;DHT22;6073;53.230;10.444;2022-11-20T08:25:35;1.60;99.90
12025;DHT22;6073;53.230;10.444;2022-11-20T08:28:03;1.60;99.90
12025;DHT22;6073;53.230;10.444;2022-11-20T08:30:29;1.70;99.90
12025;DHT22;6073;53.230;10.444;2022-11-20T08:32:59;1.70;99.90
12025;DHT22;6073;53.230;10.444;2022-11-20T08:35:27;1.80;99.90
12025;DHT22;6073;53.230;10.444;2022-11-20T08:37:53;1.80;99.90
12025;DHT22;6073;53.230;10.444;2022-11-20T08:40:19;2.00;99.90
12025;DHT22;6073;53.230;10.444;2022-11-20T08:42:51;2.20;99.90
12025;DHT22;6073;53.230;10.444;2022-11-20T08:45:18;2.40;99.90
12025;DHT22;6073;53.230;10.444;2022-11-20T08:47:44;2.50;99.90
12025;DHT22;6073;53.230;10.444;2022-11-20T08:50:11;2.70;99.90
12025;DHT22;6073;53.230;10.444;2022-11-20T08:52:37;2.70;99.90
12025;DHT22;6073;53.230;10.444;2022-11-20T08:55:04;2.70;99.90
12025;DHT22;6073;53.230;10.444;2022-11-20T08:57:34;2.60;99.90
12025;DHT22;6073;53.230;10.444;2022-11-20T09:00:00;2.40;99.90
12025;DHT22;6073;53.230;10.444;2022-11-20T09:02:26;2.50;99.90
12025;DHT22;6073;53.230;10.444;2022-11-20T09:04:51;2.50;99.90
12025;DHT22;6073;53.230;10.444;2022-11-20T09:07:18;2.50;99.90
12025;DHT22;6073;53.230;10.444;2022-11-20T09:09:43;2.50;99.90
12025;DHT22;6073;53.230;10.444;2022-11-20T09:12:09;2.60;99.90
12025;DHT22;6073;53.230;10.444;2022-11-20T09:14:35;2.70;99.90
12025;DHT22;6073;53.230;10.444;2022-11-20T09:17:01;3.00;99.90
12025;DHT22;6073;53.230;10.444;2022-11-20T09:19:26;3.10;99.90
12025;DHT22;6073;53.230;10.444;2022-11-20T09:21:52;3.20;99.90
12025;DHT22;6073;53.230;10.444;2022-11-20T09:24:18;3.20;99.90
12025;DHT22;6073;53.230;10.444;2022-11-20T09:26:44;3.00;99.90
12025;DHT22;6073;53.230;10.444;2022-11-20T09:29:10;2.90;99.90
12025;DHT22;6073;53.230;10.444;2022-11-20T09:31:39;2.80;99.90
12025;DHT22;6073;53.230;10.444;2022-11-20T09:34:04;2.70;99.90
12025;DHT22;6073;53.230;10.444;2022-11-20T09:36:30;2.60;99.90
12025;DHT22;6073;53.230;10.444;2022-11-20T09:38:55;2.50;99.90
12025;DHT22;6073;53.230;10.444;2022-11-20T09:41:55;2.50;99.90
12025;DHT22;6073;53.230;10.444;2022-11-20T09:44:51;2.60;99.90
12025;DHT22;6073;53.230;10.444;2022-11-20T09:47:48;2.60;99.90
12025;DHT22;6073;53.230;10.444;2022-11-20T09:50:43;2.60;99.90
12025;DHT22;6073;53.230;10.444;2022-11-20T09:55:50;2.60;99.90
12025;DHT22;6073;53.230;10.444;2022-11-20T09:58:38;2.40;99.90
12025;DHT22;6073;53.230;10.444;2022-11-20T10:01:20;2.30;99.90
12025;DHT22;6073;53.230;10.444;2022-11-20T10:07:02;2.30;99.90
12025;DHT22;6073;53.230;10.444;2022-11-20T10:09:35;2.40;99.90
12025;DHT22;6073;53.230;10.444;2022-11-20T10:17:43;2.90;99.90
12025;DHT22;6073;53.230;10.444;2022-11-20T10:29:15;3.20;99.90
12025;DHT22;6073;53.230;10.444;2022-11-20T10:31:45;3.30;99.90
12025;DHT22;6073;53.230;10.444;2022-11-20T10:35:01;3.20;99.90
12025;DHT22;6073;53.230;10.444;2022-11-20T10:37:16;3.20;99.90
12025;DHT22;6073;53.230;10.444;2022-11-20T10:47:52;3.40;99.90
12025;DHT22;6073;53.230;10.444;2022-11-20T10:50:21;3.30;99.90
12025;DHT22;6073;53.230;10.444;2022-11-20T11:01:15;3.30;99.90
12025;DHT22;6073;53.230;10.444;2022-11-20T11:03:41;3.40;99.90
12025;DHT22;6073;53.230;10.444;2022-11-20T11:06:21;3.30;99.90
12025;DHT22;6073;53.230;10.444;2022-11-20T11:08:50;3.30;99.90
12025;DHT22;6073;53.230;10.444;2022-11-20T11:11:27;3.40;99.90
12025;DHT22;6073;53.230;10.444;2022-11-20T11:13:53;3.60;99.90
12025;DHT22;6073;53.230;10.444;2022-11-20T11:16:29;3.60;99.90
12025;DHT22;6073;53.230;10.444;2022-11-20T11:19:11;3.60;99.90
12025;DHT22;6073;53.230;10.444;2022-11-20T11:21:37;3.40;99.90
12025;DHT22;6073;53.230;10.444;2022-11-20T11:24:23;3.40;99.90
12025;DHT22;6073;53.230;10.444;2022-11-20T11:26:58;3.20;99.90
12025;DHT22;6073;53.230;10.444;2022-11-20T11:29:25;3.20;99.90
12025;DHT22;6073;53.230;10.444;2022-11-20T11:34:39;3.10;99.90
12025;DHT22;6073;53.230;10.444;2022-11-20T11:37:13;3.20;99.90
12025;DHT22;6073;53.230;10.444;2022-11-20T11:39:41;3.40;99.90
12025;DHT22;6073;53.230;10.444;2022-11-20T11:42:13;3.60;99.90
12025;DHT22;6073;53.230;10.444;2022-11-20T11:44:44;3.80;99.90
12025;DHT22;6073;53.230;10.444;2022-11-20T11:55:43;3.60;99.90
12025;DHT22;6073;53.230;10.444;2022-11-20T12:00:57;3.30;99.90
12025;DHT22;6073;53.230;10.444;2022-11-20T12:03:36;3.20;99.90
12025;DHT22;6073;53.230;10.444;2022-11-20T12:06:11;3.20;99.90
12025;DHT22;6073;53.230;10.444;2022-11-20T12:08:51;3.20;99.90
12025;DHT22;6073;53.230;10.444;2022-11-20T12:11:31;3.10;99.90
12025;DHT22;6073;53.230;10.444;2022-11-20T12:14:02;3.10;99.90
12025;DHT22;6073;53.230;10.444;2022-11-20T12:16:35;3.20;99.90
12025;DHT22;6073;53.230;10.444;2022-11-20T12:19:01;3.20;99.90
12025;DHT22;6073;53.230;10.444;2022-11-20T12:24:46;3.60;99.90
12025;DHT22;6073;53.230;10.444;2022-11-20T12:30:18;3.80;99.90
12025;DHT22;6073;53.230;10.444;2022-11-20T12:47:16;3.30;99.90
12025;DHT22;6073;53.230;10.444;2022-11-20T12:51:01;3.10;99.90
12025;DHT22;6073;53.230;10.444;2022-11-20T12:53:47;3.00;99.90
12025;DHT22;6073;53.230;10.444;2022-11-20T13:02:27;2.60;99.90
12025;DHT22;6073;53.230;10.444;2022-11-20T13:07:51;2.50;99.90
12025;DHT22;6073;53.230;10.444;2022-11-20T13:10:43;2.40;99.90
12025;DHT22;6073;53.230;10.444;2022-11-20T13:16:35;2.40;99.90
12025;DHT22;6073;53.230;10.444;2022-11-20T13:18:43;2.40;99.90
12025;DHT22;6073;53.230;10.444;2022-11-20T13:21:22;2.40;99.90
12025;DHT22;6073;53.230;10.444;2022-11-20T13:23:48;2.30;99.90
12025;DHT22;6073;53.230;10.444;2022-11-20T13:26:22;2.30;99.90
12025;DHT22;6073;53.230;10.444;2022-11-20T13:29:01;2.20;99.90
12025;DHT22;6073;53.230;10.444;2022-11-20T13:31:33;2.20;99.90
12025;DHT22;6073;53.230;10.444;2022-11-20T13:34:06;2.20;99.90
12025;DHT22;6073;53.230;10.444;2022-11-20T13:36:35;2.10;99.90
12025;DHT22;6073;53.230;10.444;2022-11-20T13:39:01;2.10;99.90
12025;DHT22;6073;53.230;10.444;2022-11-20T13:41:36;2.20;99.90
12025;DHT22;6073;53.230;10.444;2022-11-20T13:44:23;2.20;99.90
12025;DHT22;6073;53.230;10.444;2022-11-20T13:46:50;2.30;99.90
12025;DHT22;6073;53.230;10.444;2022-11-20T13:49:38;2.30;99.90
12025;DHT22;6073;53.230;10.444;2022-11-20T14:01:25;2.30;99.90
12025;DHT22;6073;53.230;10.444;2022-11-20T14:03:52;2.30;99.90
12025;DHT22;6073;53.230;10.444;2022-11-20T14:06:28;2.30;99.90
12025;DHT22;6073;53.230;10.444;2022-11-20T14:08:55;2.20;99.90
12025;DHT22;6073;53.230;10.444;2022-11-20T14:16:22;1.90;99.90
12025;DHT22;6073;53.230;10.444;2022-11-20T14:18:48;1.90;99.90
12025;DHT22;6073;53.230;10.444;2022-11-20T14:21:28;1.80;99.90
12025;DHT22;6073;53.230;10.444;2022-11-20T14:24:11;1.80;99.90
12025;DHT22;6073;53.230;10.444;2022-11-20T14:26:41;1.70;99.90
12025;DHT22;6073;53.230;10.444;2022-11-20T14:29:14;1.70;99.90
12025;DHT22;6073;53.230;10.444;2022-11-20T14:31:40;1.70;99.90
12025;DHT22;6073;53.230;10.444;2022-11-20T14:34:16;1.60;99.90
12025;DHT22;6073;53.230;10.444;2022-11-20T14:36:43;1.50;99.90
12025;DHT22;6073;53.230;10.444;2022-11-20T14:39:12;1.40;99.90
12025;DHT22;6073;53.230;10.444;2022-11-20T14:41:37;1.40;99.90
12025;DHT22;6073;53.230;10.444;2022-11-20T14:44:04;1.50;99.90
12025;DHT22;6073;53.230;10.444;2022-11-20T14:46:31;1.50;99.90
12025;DHT22;6073;53.230;10.444;2022-11-20T14:49:00;1.40;99.90
12025;DHT22;6073;53.230;10.444;2022-11-20T14:51:30;1.50;99.90
12025;DHT22;6073;53.230;10.444;2022-11-20T14:54:07;1.30;99.90
12025;DHT22;6073;53.230;10.444;2022-11-20T14:56:33;1.30;99.90
12025;DHT22;6073;53.230;10.444;2022-11-20T14:58:58;1.30;99.90
12025;DHT22;6073;53.230;10.444;2022-11-20T15:01:29;1.30;99.90
12025;DHT22;6073;53.230;10.444;2022-11-20T15:04:10;1.40;99.90
12025;DHT22;6073;53.230;10.444;2022-11-20T15:06:36;1.40;99.90
12025;DHT22;6073;53.230;10.444;2022-11-20T15:09:12;1.50;99.90
12025;DHT22;6073;53.230;10.444;2022-11-20T15:11:38;1.50;99.90
12025;DHT22;6073;53.230;10.444;2022-11-20T15:14:08;1.60;99.90
12025;DHT22;6073;53.230;10.444;2022-11-20T15:16:34;1.60;99.90
12025;DHT22;6073;53.230;10.444;2022-11-20T15:19:00;1.50;99.90
12025;DHT22;6073;53.230;10.444;2022-11-20T15:21:27;1.50;99.90
12025;DHT22;6073;53.230;10.444;2022-11-20T15:23:53;1.40;99.90
12025;DHT22;6073;53.230;10.444;2022-11-20T15:26:25;1.30;99.90
12025;DHT22;6073;53.230;10.444;2022-11-20T15:28:52;1.10;99.90
12025;DHT22;6073;53.230;10.444;2022-11-20T15:31:20;1.00;99.90
12025;DHT22;6073;53.230;10.444;2022-11-20T15:33:46;0.80;99.90
12025;DHT22;6073;53.230;10.444;2022-11-20T15:36:12;0.70;99.90
12025;DHT22;6073;53.230;10.444;2022-11-20T15:38:37;0.60;99.90
12025;DHT22;6073;53.230;10.444;2022-11-20T15:41:03;0.50;99.90
12025;DHT22;6073;53.230;10.444;2022-11-20T15:43:30;0.40;99.90
12025;DHT22;6073;53.230;10.444;2022-11-20T15:46:11;0.40;99.90
12025;DHT22;6073;53.230;10.444;2022-11-20T15:48:41;0.40;99.90
12025;DHT22;6073;53.230;10.444;2022-11-20T15:53:43;0.40;99.90
12025;DHT22;6073;53.230;10.444;2022-11-20T15:56:12;0.40;99.90
12025;DHT22;6073;53.230;10.444;2022-11-20T15:58:43;0.50;99.90
12025;DHT22;6073;53.230;10.444;2022-11-20T16:01:14;0.40;99.90
12025;DHT22;6073;53.230;10.444;2022-11-20T16:03:40;0.40;99.90
12025;DHT22;6073;53.230;10.444;2022-11-20T16:06:09;0.40;99.90
12025;DHT22;6073;53.230;10.444;2022-11-20T16:08:39;0.40;99.90
12025;DHT22;6073;53.230;10.444;2022-11-20T16:11:06;0.30;99.90
12025;DHT22;6073;53.230;10.444;2022-11-20T16:13:32;0.30;99.90
12025;DHT22;6073;53.230;10.444;2022-11-20T16:16:42;0.30;99.90
12025;DHT22;6073;53.230;10.444;2022-11-20T16:19:14;0.20;99.90
12025;DHT22;6073;53.230;10.444;2022-11-20T16:21:42;0.20;99.90
12025;DHT22;6073;53.230;10.444;2022-11-20T16:24:10;0.30;99.90
12025;DHT22;6073;53.230;10.444;2022-11-20T16:26:37;0.20;99.90
12025;DHT22;6073;53.230;10.444;2022-11-20T16:29:04;0.20;99.90
12025;DHT22;6073;53.230;10.444;2022-11-20T16:31:30;0.10;99.90
12025;DHT22;6073;53.230;10.444;2022-11-20T16:33:58;0.20;99.90
12025;DHT22;6073;53.230;10.444;2022-11-20T16:36:28;0.20;99.90
12025;DHT22;6073;53.230;10.444;2022-11-20T16:39:02;0.20;99.90
12025;DHT22;6073;53.230;10.444;2022-11-20T16:41:32;0.20;99.90
12025;DHT22;6073;53.230;10.444;2022-11-20T16:44:00;0.30;99.90
12025;DHT22;6073;53.230;10.444;2022-11-20T16:46:31;0.40;99.90
12025;DHT22;6073;53.230;10.444;2022-11-20T16:49:02;0.40;99.90
12025;DHT22;6073;53.230;10.444;2022-11-20T16:51:29;0.50;99.90
12025;DHT22;6073;53.230;10.444;2022-11-20T16:53:56;0.50;99.90
12025;DHT22;6073;53.230;10.444;2022-11-20T16:56:28;0.50;99.90
12025;DHT22;6073;53.230;10.444;2022-11-20T16:58:56;0.40;99.90
12025;DHT22;6073;53.230;10.444;2022-11-20T17:01:23;0.50;99.90
12025;DHT22;6073;53.230;10.444;2022-11-20T17:04:10;0.50;99.90
12025;DHT22;6073;53.230;10.444;2022-11-20T17:06:38;0.50;99.90
12025;DHT22;6073;53.230;10.444;2022-11-20T17:09:08;0.50;99.90
12025;DHT22;6073;53.230;10.444;2022-11-20T17:11:38;0.50;99.90
12025;DHT22;6073;53.230;10.444;2022-11-20T17:14:09;0.50;99.90
12025;DHT22;6073;53.230;10.444;2022-11-20T17:16:36;0.60;99.90
12025;DHT22;6073;53.230;10.444;2022-11-20T17:19:09;0.50;99.90
12025;DHT22;6073;53.230;10.444;2022-11-20T17:21:35;0.50;99.90
12025;DHT22;6073;53.230;10.444;2022-11-20T17:24:07;0.40;99.90
12025;DHT22;6073;53.230;10.444;2022-11-20T17:26:37;0.30;99.90
12025;DHT22;6073;53.230;10.444;2022-11-20T17:29:12;0.30;99.90
12025;DHT22;6073;53.230;10.444;2022-11-20T17:31:39;0.20;99.90
12025;DHT22;6073;53.230;10.444;2022-11-20T17:34:06;0.10;99.90
12025;DHT22;6073;53.230;10.444;2022-11-20T17:36:33;0.10;99.90
12025;DHT22;6073;53.230;10.444;2022-11-20T17:39:04;0.10;99.90
12025;DHT22;6073;53.230;10.444;2022-11-20T17:41:39;0.10;99.90
12025;DHT22;6073;53.230;10.444;2022-11-20T17:44:04;0.10;99.90
12025;DHT22;6073;53.230;10.444;2022-11-20T17:46:35;0.20;99.90
12025;DHT22;6073;53.230;10.444;2022-11-20T17:49:02;0.20;99.90